sensor_id;sensor_type;location;lat;lon;timestamp;P1;durP1;ratioP1;P2;durP2;ratioP2
64738;SDS011;51175;51.186;0.276;2023-02-26T00:00:22;10.50;;;3.55;;
64738;SDS011;51175;51.186;0.276;2023-02-26T00:00:53;7.82;;;3.20;;
64738;SDS011;51175;51.186;0.276;2023-02-26T00:01:25;8.98;;;3.70;;
64738;SDS011;51175;51.186;0.276;2023-02-26T00:01:57;7.07;;;3.40;;
64738;SDS011;51175;51.186;0.276;2023-02-26T00:02:31;9.10;;;4.28;;
64738;SDS011;51175;51.186;0.276;2023-02-26T00:03:01;8.10;;;3.45;;
64738;SDS011;51175;51.186;0.276;2023-02-26T00:03:32;10.20;;;3.67;;
64738;SDS011;51175;51.186;0.276;2023-02-26T00:04:02;9.02;;;2.65;;
64738;SDS011;51175;51.186;0.276;2023-02-26T00:04:35;8.93;;;3.45;;
64738;SDS011;51175;51.186;0.276;2023-02-26T00:05:06;8.88;;;4.15;;
64738;SDS011;51175;51.186;0.276;2023-02-26T00:05:36;11.88;;;3.60;;
64738;SDS011;51175;51.186;0.276;2023-02-26T00:06:07;7.88;;;3.40;;
64738;SDS011;51175;51.186;0.276;2023-02-26T00:06:39;6.43;;;3.05;;
64738;SDS011;51175;51.186;0.276;2023-02-26T00:07:21;10.82;;;3.97;;
64738;SDS011;51175;51.186;0.276;2023-02-26T00:07:51;10.50;;;3.42;;
64738;SDS011;51175;51.186;0.276;2023-02-26T00:08:22;8.57;;;3.05;;
64738;SDS011;51175;51.186;0.276;2023-02-26T00:08:52;9.80;;;3.53;;
64738;SDS011;51175;51.186;0.276;2023-02-26T00:09:23;9.23;;;3.83;;
64738;SDS011;51175;51.186;0.276;2023-02-26T00:09:54;8.60;;;3.45;;
64738;SDS011;51175;51.186;0.276;2023-02-26T00:10:24;6.20;;;3.63;;
64738;SDS011;51175;51.186;0.276;2023-02-26T00:10:55;8.55;;;2.78;;
64738;SDS011;51175;51.186;0.276;2023-02-26T00:11:26;8.38;;;3.17;;
64738;SDS011;51175;51.186;0.276;2023-02-26T00:11:57;7.05;;;3.05;;
64738;SDS011;51175;51.186;0.276;2023-02-26T00:12:29;6.38;;;3.20;;
64738;SDS011;51175;51.186;0.276;2023-02-26T00:13:00;9.68;;;3.83;;
64738;SDS011;51175;51.186;0.276;2023-02-26T00:13:30;11.45;;;4.15;;
64738;SDS011;51175;51.186;0.276;2023-02-26T00:14:01;9.27;;;3.50;;
64738;SDS011;51175;51.186;0.276;2023-02-26T00:14:32;9.82;;;3.67;;
64738;SDS011;51175;51.186;0.276;2023-02-26T00:15:03;10.07;;;4.65;;
64738;SDS011;51175;51.186;0.276;2023-02-26T00:15:34;8.23;;;3.20;;
64738;SDS011;51175;51.186;0.276;2023-02-26T00:16:10;6.45;;;3.40;;
64738;SDS011;51175;51.186;0.276;2023-02-26T00:16:47;10.35;;;3.78;;
64738;SDS011;51175;51.186;0.276;2023-02-26T00:18:05;8.88;;;2.80;;
64738;SDS011;51175;51.186;0.276;2023-02-26T00:18:41;6.68;;;3.28;;
64738;SDS011;51175;51.186;0.276;2023-02-26T00:19:12;6.78;;;3.08;;
64738;SDS011;51175;51.186;0.276;2023-02-26T00:19:43;8.82;;;3.03;;
64738;SDS011;51175;51.186;0.276;2023-02-26T00:20:13;7.43;;;3.47;;
64738;SDS011;51175;51.186;0.276;2023-02-26T00:20:45;9.10;;;3.17;;
64738;SDS011;51175;51.186;0.276;2023-02-26T00:21:17;7.30;;;3.20;;
64738;SDS011;51175;51.186;0.276;2023-02-26T00:21:48;9.77;;;3.65;;
64738;SDS011;51175;51.186;0.276;2023-02-26T00:22:19;7.50;;;3.22;;
64738;SDS011;51175;51.186;0.276;2023-02-26T00:22:50;7.75;;;3.15;;
64738;SDS011;51175;51.186;0.276;2023-02-26T00:23:21;6.75;;;3.17;;
64738;SDS011;51175;51.186;0.276;2023-02-26T00:23:53;6.80;;;3.15;;
64738;SDS011;51175;51.186;0.276;2023-02-26T00:24:23;9.35;;;3.03;;
64738;SDS011;51175;51.186;0.276;2023-02-26T00:24:53;11.88;;;3.40;;
64738;SDS011;51175;51.186;0.276;2023-02-26T00:25:24;9.18;;;3.45;;
64738;SDS011;51175;51.186;0.276;2023-02-26T00:25:56;10.15;;;3.17;;
64738;SDS011;51175;51.186;0.276;2023-02-26T00:26:27;10.68;;;3.58;;
64738;SDS011;51175;51.186;0.276;2023-02-26T00:26:59;7.47;;;2.85;;
64738;SDS011;51175;51.186;0.276;2023-02-26T00:27:29;8.75;;;2.75;;
64738;SDS011;51175;51.186;0.276;2023-02-26T00:28:00;6.75;;;3.00;;
64738;SDS011;51175;51.186;0.276;2023-02-26T00:28:30;7.38;;;3.38;;
64738;SDS011;51175;51.186;0.276;2023-02-26T00:29:01;6.82;;;3.17;;
64738;SDS011;51175;51.186;0.276;2023-02-26T00:29:32;7.28;;;3.65;;
64738;SDS011;51175;51.186;0.276;2023-02-26T00:30:04;6.88;;;3.03;;
64738;SDS011;51175;51.186;0.276;2023-02-26T00:30:36;7.15;;;3.00;;
64738;SDS011;51175;51.186;0.276;2023-02-26T00:31:07;9.30;;;3.22;;
64738;SDS011;51175;51.186;0.276;2023-02-26T00:31:38;6.20;;;2.80;;
64738;SDS011;51175;51.186;0.276;2023-02-26T00:32:09;7.10;;;3.10;;
64738;SDS011;51175;51.186;0.276;2023-02-26T00:32:40;5.28;;;2.92;;
64738;SDS011;51175;51.186;0.276;2023-02-26T00:33:11;5.80;;;2.90;;
64738;SDS011;51175;51.186;0.276;2023-02-26T00:33:42;7.32;;;3.85;;
64738;SDS011;51175;51.186;0.276;2023-02-26T00:34:13;9.35;;;2.65;;
64738;SDS011;51175;51.186;0.276;2023-02-26T00:34:45;8.93;;;3.15;;
64738;SDS011;51175;51.186;0.276;2023-02-26T00:35:16;8.23;;;3.92;;
64738;SDS011;51175;51.186;0.276;2023-02-26T00:35:47;8.40;;;2.40;;
64738;SDS011;51175;51.186;0.276;2023-02-26T00:36:26;7.30;;;3.03;;
64738;SDS011;51175;51.186;0.276;2023-02-26T00:37:59;9.35;;;3.30;;
64738;SDS011;51175;51.186;0.276;2023-02-26T00:38:35;6.50;;;3.00;;
64738;SDS011;51175;51.186;0.276;2023-02-26T00:39:17;9.63;;;3.83;;
64738;SDS011;51175;51.186;0.276;2023-02-26T00:41:15;7.72;;;3.88;;
64738;SDS011;51175;51.186;0.276;2023-02-26T00:41:46;8.70;;;3.33;;
64738;SDS011;51175;51.186;0.276;2023-02-26T00:42:17;11.00;;;3.78;;
64738;SDS011;51175;51.186;0.276;2023-02-26T00:42:48;7.60;;;3.35;;
64738;SDS011;51175;51.186;0.276;2023-02-26T00:43:20;9.45;;;3.90;;
64738;SDS011;51175;51.186;0.276;2023-02-26T00:43:52;7.55;;;2.55;;
64738;SDS011;51175;51.186;0.276;2023-02-26T00:44:22;6.53;;;3.42;;
64738;SDS011;51175;51.186;0.276;2023-02-26T00:44:53;9.02;;;2.70;;
64738;SDS011;51175;51.186;0.276;2023-02-26T00:45:23;6.05;;;2.88;;
64738;SDS011;51175;51.186;0.276;2023-02-26T00:46:44;9.45;;;3.40;;
64738;SDS011;51175;51.186;0.276;2023-02-26T00:48:54;7.18;;;2.95;;
64738;SDS011;51175;51.186;0.276;2023-02-26T00:50:42;5.72;;;3.20;;
64738;SDS011;51175;51.186;0.276;2023-02-26T00:51:30;8.98;;;3.25;;
64738;SDS011;51175;51.186;0.276;2023-02-26T00:52:06;5.65;;;2.60;;
64738;SDS011;51175;51.186;0.276;2023-02-26T00:53:26;6.55;;;2.50;;
64738;SDS011;51175;51.186;0.276;2023-02-26T00:54:37;10.40;;;4.07;;
64738;SDS011;51175;51.186;0.276;2023-02-26T00:55:07;7.38;;;3.30;;
64738;SDS011;51175;51.186;0.276;2023-02-26T00:55:38;8.02;;;3.25;;
64738;SDS011;51175;51.186;0.276;2023-02-26T00:56:08;7.30;;;2.72;;
64738;SDS011;51175;51.186;0.276;2023-02-26T00:56:39;7.63;;;2.42;;
64738;SDS011;51175;51.186;0.276;2023-02-26T00:57:09;6.53;;;2.63;;
64738;SDS011;51175;51.186;0.276;2023-02-26T00:57:39;10.30;;;2.90;;
64738;SDS011;51175;51.186;0.276;2023-02-26T00:58:10;6.57;;;3.20;;
64738;SDS011;51175;51.186;0.276;2023-02-26T00:58:40;6.40;;;2.83;;
64738;SDS011;51175;51.186;0.276;2023-02-26T00:59:11;8.65;;;3.67;;
64738;SDS011;51175;51.186;0.276;2023-02-26T00:59:42;6.68;;;2.60;;
64738;SDS011;51175;51.186;0.276;2023-02-26T01:00:12;4.97;;;2.70;;
64738;SDS011;51175;51.186;0.276;2023-02-26T01:00:43;8.52;;;3.17;;
64738;SDS011;51175;51.186;0.276;2023-02-26T01:01:13;6.25;;;2.80;;
64738;SDS011;51175;51.186;0.276;2023-02-26T01:01:44;5.88;;;2.38;;
64738;SDS011;51175;51.186;0.276;2023-02-26T01:02:14;7.50;;;3.15;;
64738;SDS011;51175;51.186;0.276;2023-02-26T01:02:45;7.88;;;2.88;;
64738;SDS011;51175;51.186;0.276;2023-02-26T01:03:16;8.30;;;3.42;;
64738;SDS011;51175;51.186;0.276;2023-02-26T01:03:47;9.90;;;3.15;;
64738;SDS011;51175;51.186;0.276;2023-02-26T01:04:18;7.00;;;3.03;;
64738;SDS011;51175;51.186;0.276;2023-02-26T01:04:51;11.80;;;4.68;;
64738;SDS011;51175;51.186;0.276;2023-02-26T01:05:22;5.97;;;2.55;;
64738;SDS011;51175;51.186;0.276;2023-02-26T01:05:52;7.13;;;3.75;;
64738;SDS011;51175;51.186;0.276;2023-02-26T01:06:24;7.90;;;3.05;;
64738;SDS011;51175;51.186;0.276;2023-02-26T01:06:58;4.85;;;2.83;;
64738;SDS011;51175;51.186;0.276;2023-02-26T01:07:28;8.60;;;3.72;;
64738;SDS011;51175;51.186;0.276;2023-02-26T01:08:42;12.43;;;3.15;;
64738;SDS011;51175;51.186;0.276;2023-02-26T01:09:57;9.57;;;3.25;;
64738;SDS011;51175;51.186;0.276;2023-02-26T01:10:28;7.68;;;2.85;;
64738;SDS011;51175;51.186;0.276;2023-02-26T01:10:58;6.93;;;2.53;;
64738;SDS011;51175;51.186;0.276;2023-02-26T01:11:29;7.93;;;3.10;;
64738;SDS011;51175;51.186;0.276;2023-02-26T01:12:03;7.78;;;3.88;;
64738;SDS011;51175;51.186;0.276;2023-02-26T01:12:36;7.50;;;3.70;;
64738;SDS011;51175;51.186;0.276;2023-02-26T01:13:06;6.25;;;2.72;;
64738;SDS011;51175;51.186;0.276;2023-02-26T01:13:37;9.77;;;3.70;;
64738;SDS011;51175;51.186;0.276;2023-02-26T01:14:08;8.50;;;3.17;;
64738;SDS011;51175;51.186;0.276;2023-02-26T01:14:39;6.22;;;2.40;;
64738;SDS011;51175;51.186;0.276;2023-02-26T01:15:09;5.82;;;2.60;;
64738;SDS011;51175;51.186;0.276;2023-02-26T01:15:42;7.85;;;3.58;;
64738;SDS011;51175;51.186;0.276;2023-02-26T01:16:20;7.25;;;2.80;;
64738;SDS011;51175;51.186;0.276;2023-02-26T01:18:04;10.43;;;2.80;;
64738;SDS011;51175;51.186;0.276;2023-02-26T01:18:43;6.03;;;2.55;;
64738;SDS011;51175;51.186;0.276;2023-02-26T01:19:26;6.80;;;3.00;;
64738;SDS011;51175;51.186;0.276;2023-02-26T01:20:15;10.25;;;3.05;;
64738;SDS011;51175;51.186;0.276;2023-02-26T01:20:50;7.22;;;2.60;;
64738;SDS011;51175;51.186;0.276;2023-02-26T01:21:28;10.63;;;3.35;;
64738;SDS011;51175;51.186;0.276;2023-02-26T01:22:08;7.15;;;3.15;;
64738;SDS011;51175;51.186;0.276;2023-02-26T01:22:47;6.78;;;2.78;;
64738;SDS011;51175;51.186;0.276;2023-02-26T01:23:22;10.55;;;4.00;;
64738;SDS011;51175;51.186;0.276;2023-02-26T01:23:54;8.30;;;3.60;;
64738;SDS011;51175;51.186;0.276;2023-02-26T01:24:25;8.88;;;2.97;;
64738;SDS011;51175;51.186;0.276;2023-02-26T01:25:04;8.40;;;3.90;;
64738;SDS011;51175;51.186;0.276;2023-02-26T01:26:14;4.00;;;2.70;;
64738;SDS011;51175;51.186;0.276;2023-02-26T01:26:51;8.30;;;3.10;;
64738;SDS011;51175;51.186;0.276;2023-02-26T01:27:22;7.30;;;2.70;;
64738;SDS011;51175;51.186;0.276;2023-02-26T01:27:52;6.82;;;2.38;;
64738;SDS011;51175;51.186;0.276;2023-02-26T01:28:26;8.02;;;4.18;;
64738;SDS011;51175;51.186;0.276;2023-02-26T01:28:56;6.93;;;3.63;;
64738;SDS011;51175;51.186;0.276;2023-02-26T01:29:27;6.82;;;2.17;;
64738;SDS011;51175;51.186;0.276;2023-02-26T01:29:57;7.97;;;2.60;;
64738;SDS011;51175;51.186;0.276;2023-02-26T01:30:28;8.68;;;2.47;;
64738;SDS011;51175;51.186;0.276;2023-02-26T01:31:01;9.40;;;3.08;;
64738;SDS011;51175;51.186;0.276;2023-02-26T01:32:17;7.07;;;2.83;;
64738;SDS011;51175;51.186;0.276;2023-02-26T01:33:40;7.88;;;2.72;;
64738;SDS011;51175;51.186;0.276;2023-02-26T01:34:28;9.63;;;2.97;;
64738;SDS011;51175;51.186;0.276;2023-02-26T01:35:12;8.38;;;2.40;;
64738;SDS011;51175;51.186;0.276;2023-02-26T01:35:47;6.60;;;2.72;;
64738;SDS011;51175;51.186;0.276;2023-02-26T01:36:22;6.53;;;2.88;;
64738;SDS011;51175;51.186;0.276;2023-02-26T01:38:44;9.38;;;2.67;;
64738;SDS011;51175;51.186;0.276;2023-02-26T01:39:43;8.10;;;2.67;;
64738;SDS011;51175;51.186;0.276;2023-02-26T01:41:26;9.30;;;2.92;;
64738;SDS011;51175;51.186;0.276;2023-02-26T01:42:45;6.22;;;2.47;;
64738;SDS011;51175;51.186;0.276;2023-02-26T01:43:23;9.27;;;3.72;;
64738;SDS011;51175;51.186;0.276;2023-02-26T01:44:41;9.77;;;3.30;;
64738;SDS011;51175;51.186;0.276;2023-02-26T01:45:20;5.18;;;2.80;;
64738;SDS011;51175;51.186;0.276;2023-02-26T01:47:53;8.15;;;2.65;;
64738;SDS011;51175;51.186;0.276;2023-02-26T01:48:41;7.78;;;3.28;;
64738;SDS011;51175;51.186;0.276;2023-02-26T01:49:18;4.80;;;1.70;;
64738;SDS011;51175;51.186;0.276;2023-02-26T01:49:49;7.90;;;3.20;;
64738;SDS011;51175;51.186;0.276;2023-02-26T01:50:21;7.60;;;2.72;;
64738;SDS011;51175;51.186;0.276;2023-02-26T01:50:58;4.20;;;2.08;;
64738;SDS011;51175;51.186;0.276;2023-02-26T01:53:22;12.90;;;3.22;;
64738;SDS011;51175;51.186;0.276;2023-02-26T01:53:54;7.75;;;3.15;;
64738;SDS011;51175;51.186;0.276;2023-02-26T01:55:05;7.70;;;2.75;;
64738;SDS011;51175;51.186;0.276;2023-02-26T01:55:35;6.35;;;2.60;;
64738;SDS011;51175;51.186;0.276;2023-02-26T01:56:14;5.68;;;2.65;;
64738;SDS011;51175;51.186;0.276;2023-02-26T01:56:48;5.95;;;2.70;;
64738;SDS011;51175;51.186;0.276;2023-02-26T01:57:21;9.88;;;2.22;;
64738;SDS011;51175;51.186;0.276;2023-02-26T01:57:53;9.32;;;2.92;;
64738;SDS011;51175;51.186;0.276;2023-02-26T01:58:26;6.43;;;2.78;;
64738;SDS011;51175;51.186;0.276;2023-02-26T01:59:01;12.75;;;2.78;;
64738;SDS011;51175;51.186;0.276;2023-02-26T01:59:38;12.90;;;2.60;;
64738;SDS011;51175;51.186;0.276;2023-02-26T02:00:13;9.40;;;2.85;;
64738;SDS011;51175;51.186;0.276;2023-02-26T02:00:45;4.22;;;1.95;;
64738;SDS011;51175;51.186;0.276;2023-02-26T02:01:15;4.38;;;2.03;;
64738;SDS011;51175;51.186;0.276;2023-02-26T02:01:45;7.00;;;2.78;;
64738;SDS011;51175;51.186;0.276;2023-02-26T02:02:17;7.25;;;2.63;;
64738;SDS011;51175;51.186;0.276;2023-02-26T02:02:50;7.18;;;2.10;;
64738;SDS011;51175;51.186;0.276;2023-02-26T02:03:21;5.15;;;2.40;;
64738;SDS011;51175;51.186;0.276;2023-02-26T02:03:54;4.22;;;2.17;;
64738;SDS011;51175;51.186;0.276;2023-02-26T02:04:25;10.50;;;3.47;;
64738;SDS011;51175;51.186;0.276;2023-02-26T02:04:56;7.80;;;2.38;;
64738;SDS011;51175;51.186;0.276;2023-02-26T02:06:37;5.38;;;2.33;;
64738;SDS011;51175;51.186;0.276;2023-02-26T02:07:08;6.60;;;2.90;;
64738;SDS011;51175;51.186;0.276;2023-02-26T02:07:39;4.13;;;2.08;;
64738;SDS011;51175;51.186;0.276;2023-02-26T02:08:10;5.95;;;2.58;;
64738;SDS011;51175;51.186;0.276;2023-02-26T02:08:42;7.93;;;2.28;;
64738;SDS011;51175;51.186;0.276;2023-02-26T02:09:12;6.68;;;3.20;;
64738;SDS011;51175;51.186;0.276;2023-02-26T02:09:43;5.30;;;2.28;;
64738;SDS011;51175;51.186;0.276;2023-02-26T02:10:13;6.97;;;2.80;;
64738;SDS011;51175;51.186;0.276;2023-02-26T02:10:44;8.82;;;2.50;;
64738;SDS011;51175;51.186;0.276;2023-02-26T02:11:16;5.47;;;1.75;;
64738;SDS011;51175;51.186;0.276;2023-02-26T02:12:53;8.48;;;3.00;;
64738;SDS011;51175;51.186;0.276;2023-02-26T02:14:19;5.47;;;2.35;;
64738;SDS011;51175;51.186;0.276;2023-02-26T02:16:16;4.47;;;1.98;;
64738;SDS011;51175;51.186;0.276;2023-02-26T02:17:11;5.80;;;1.90;;
64738;SDS011;51175;51.186;0.276;2023-02-26T02:18:34;5.38;;;2.33;;
64738;SDS011;51175;51.186;0.276;2023-02-26T02:24:00;6.20;;;2.45;;
64738;SDS011;51175;51.186;0.276;2023-02-26T02:26:25;6.30;;;1.80;;
64738;SDS011;51175;51.186;0.276;2023-02-26T02:27:12;6.05;;;2.00;;
64738;SDS011;51175;51.186;0.276;2023-02-26T02:29:23;4.90;;;1.95;;
64738;SDS011;51175;51.186;0.276;2023-02-26T02:32:01;8.82;;;2.17;;
64738;SDS011;51175;51.186;0.276;2023-02-26T02:32:26;4.30;;;1.88;;
64738;SDS011;51175;51.186;0.276;2023-02-26T02:33:07;4.38;;;1.80;;
64738;SDS011;51175;51.186;0.276;2023-02-26T02:33:46;5.00;;;2.72;;
64738;SDS011;51175;51.186;0.276;2023-02-26T02:34:28;6.80;;;2.10;;
64738;SDS011;51175;51.186;0.276;2023-02-26T02:38:03;4.60;;;2.20;;
64738;SDS011;51175;51.186;0.276;2023-02-26T02:38:41;5.65;;;1.98;;
64738;SDS011;51175;51.186;0.276;2023-02-26T02:40:19;6.22;;;2.50;;
64738;SDS011;51175;51.186;0.276;2023-02-26T02:40:56;6.32;;;2.17;;
64738;SDS011;51175;51.186;0.276;2023-02-26T02:41:35;4.97;;;2.00;;
64738;SDS011;51175;51.186;0.276;2023-02-26T02:42:46;6.18;;;2.00;;
64738;SDS011;51175;51.186;0.276;2023-02-26T02:43:25;5.65;;;1.77;;
64738;SDS011;51175;51.186;0.276;2023-02-26T02:43:59;7.32;;;2.30;;
64738;SDS011;51175;51.186;0.276;2023-02-26T02:44:35;9.20;;;1.80;;
64738;SDS011;51175;51.186;0.276;2023-02-26T02:45:10;6.70;;;2.65;;
64738;SDS011;51175;51.186;0.276;2023-02-26T02:45:49;5.70;;;1.77;;
64738;SDS011;51175;51.186;0.276;2023-02-26T02:46:24;4.25;;;1.63;;
64738;SDS011;51175;51.186;0.276;2023-02-26T02:46:59;6.10;;;3.15;;
64738;SDS011;51175;51.186;0.276;2023-02-26T02:47:32;6.15;;;2.15;;
64738;SDS011;51175;51.186;0.276;2023-02-26T02:48:16;6.95;;;1.90;;
64738;SDS011;51175;51.186;0.276;2023-02-26T02:49:01;6.68;;;2.13;;
64738;SDS011;51175;51.186;0.276;2023-02-26T02:49:36;5.82;;;1.80;;
64738;SDS011;51175;51.186;0.276;2023-02-26T02:50:13;4.20;;;1.90;;
64738;SDS011;51175;51.186;0.276;2023-02-26T02:50:53;8.07;;;2.05;;
64738;SDS011;51175;51.186;0.276;2023-02-26T02:52:00;4.88;;;1.60;;
64738;SDS011;51175;51.186;0.276;2023-02-26T02:52:35;8.63;;;2.25;;
64738;SDS011;51175;51.186;0.276;2023-02-26T02:53:18;8.15;;;1.95;;
64738;SDS011;51175;51.186;0.276;2023-02-26T02:53:59;7.03;;;1.83;;
64738;SDS011;51175;51.186;0.276;2023-02-26T02:54:54;4.53;;;2.15;;
64738;SDS011;51175;51.186;0.276;2023-02-26T02:55:33;4.55;;;1.92;;
64738;SDS011;51175;51.186;0.276;2023-02-26T02:56:18;5.80;;;1.50;;
64738;SDS011;51175;51.186;0.276;2023-02-26T02:57:00;4.97;;;1.70;;
64738;SDS011;51175;51.186;0.276;2023-02-26T02:57:40;5.15;;;2.38;;
64738;SDS011;51175;51.186;0.276;2023-02-26T02:58:20;5.25;;;1.40;;
64738;SDS011;51175;51.186;0.276;2023-02-26T02:59:01;5.05;;;1.55;;
64738;SDS011;51175;51.186;0.276;2023-02-26T02:59:46;6.13;;;1.75;;
64738;SDS011;51175;51.186;0.276;2023-02-26T03:00:21;6.88;;;1.70;;
64738;SDS011;51175;51.186;0.276;2023-02-26T03:00:54;6.47;;;2.53;;
64738;SDS011;51175;51.186;0.276;2023-02-26T03:01:29;5.78;;;2.38;;
64738;SDS011;51175;51.186;0.276;2023-02-26T03:03:05;7.70;;;2.42;;
64738;SDS011;51175;51.186;0.276;2023-02-26T03:03:50;5.72;;;1.95;;
64738;SDS011;51175;51.186;0.276;2023-02-26T03:04:25;8.52;;;2.20;;
64738;SDS011;51175;51.186;0.276;2023-02-26T03:04:55;6.43;;;1.80;;
64738;SDS011;51175;51.186;0.276;2023-02-26T03:05:26;8.02;;;2.30;;
64738;SDS011;51175;51.186;0.276;2023-02-26T03:05:56;4.72;;;2.05;;
64738;SDS011;51175;51.186;0.276;2023-02-26T03:06:27;6.75;;;2.47;;
64738;SDS011;51175;51.186;0.276;2023-02-26T03:06:57;8.57;;;1.55;;
64738;SDS011;51175;51.186;0.276;2023-02-26T03:07:29;7.32;;;2.28;;
64738;SDS011;51175;51.186;0.276;2023-02-26T03:08:04;5.47;;;2.58;;
64738;SDS011;51175;51.186;0.276;2023-02-26T03:08:39;3.60;;;1.88;;
64738;SDS011;51175;51.186;0.276;2023-02-26T03:09:10;4.80;;;1.80;;
64738;SDS011;51175;51.186;0.276;2023-02-26T03:09:41;8.38;;;1.92;;
64738;SDS011;51175;51.186;0.276;2023-02-26T03:10:12;4.45;;;1.60;;
64738;SDS011;51175;51.186;0.276;2023-02-26T03:10:43;5.28;;;1.30;;
64738;SDS011;51175;51.186;0.276;2023-02-26T03:11:14;7.63;;;2.30;;
64738;SDS011;51175;51.186;0.276;2023-02-26T03:11:44;5.95;;;2.20;;
64738;SDS011;51175;51.186;0.276;2023-02-26T03:12:15;3.83;;;1.70;;
64738;SDS011;51175;51.186;0.276;2023-02-26T03:12:45;6.75;;;1.58;;
64738;SDS011;51175;51.186;0.276;2023-02-26T03:13:19;4.55;;;1.85;;
64738;SDS011;51175;51.186;0.276;2023-02-26T03:13:51;4.22;;;1.77;;
64738;SDS011;51175;51.186;0.276;2023-02-26T03:14:22;5.85;;;1.95;;
64738;SDS011;51175;51.186;0.276;2023-02-26T03:14:53;6.78;;;1.73;;
64738;SDS011;51175;51.186;0.276;2023-02-26T03:20:25;6.05;;;2.45;;
64738;SDS011;51175;51.186;0.276;2023-02-26T03:21:11;5.72;;;2.08;;
64738;SDS011;51175;51.186;0.276;2023-02-26T03:22:23;6.80;;;1.50;;
64738;SDS011;51175;51.186;0.276;2023-02-26T03:23:59;4.97;;;1.20;;
64738;SDS011;51175;51.186;0.276;2023-02-26T03:25:44;4.95;;;1.40;;
64738;SDS011;51175;51.186;0.276;2023-02-26T03:26:18;4.50;;;1.30;;
64738;SDS011;51175;51.186;0.276;2023-02-26T03:27:14;3.33;;;1.50;;
64738;SDS011;51175;51.186;0.276;2023-02-26T03:28:13;3.47;;;1.92;;
64738;SDS011;51175;51.186;0.276;2023-02-26T03:29:34;5.85;;;1.40;;
64738;SDS011;51175;51.186;0.276;2023-02-26T03:30:34;4.88;;;2.72;;
64738;SDS011;51175;51.186;0.276;2023-02-26T03:31:58;7.07;;;1.35;;
64738;SDS011;51175;51.186;0.276;2023-02-26T03:32:40;4.70;;;1.55;;
64738;SDS011;51175;51.186;0.276;2023-02-26T03:34:12;4.22;;;1.50;;
64738;SDS011;51175;51.186;0.276;2023-02-26T03:34:50;7.07;;;2.40;;
64738;SDS011;51175;51.186;0.276;2023-02-26T03:35:28;4.63;;;1.63;;
64738;SDS011;51175;51.186;0.276;2023-02-26T03:36:09;3.58;;;1.30;;
64738;SDS011;51175;51.186;0.276;2023-02-26T03:36:50;2.65;;;1.40;;
64738;SDS011;51175;51.186;0.276;2023-02-26T03:37:28;6.72;;;1.73;;
64738;SDS011;51175;51.186;0.276;2023-02-26T03:38:06;5.57;;;1.70;;
64738;SDS011;51175;51.186;0.276;2023-02-26T03:38:46;3.00;;;1.60;;
64738;SDS011;51175;51.186;0.276;2023-02-26T03:39:25;7.22;;;3.10;;
64738;SDS011;51175;51.186;0.276;2023-02-26T03:40:11;5.65;;;1.67;;
64738;SDS011;51175;51.186;0.276;2023-02-26T03:40:47;4.90;;;1.50;;
64738;SDS011;51175;51.186;0.276;2023-02-26T03:41:43;3.63;;;1.70;;
64738;SDS011;51175;51.186;0.276;2023-02-26T03:42:23;4.78;;;1.55;;
64738;SDS011;51175;51.186;0.276;2023-02-26T03:45:01;2.92;;;1.67;;
64738;SDS011;51175;51.186;0.276;2023-02-26T03:45:36;4.82;;;1.33;;
64738;SDS011;51175;51.186;0.276;2023-02-26T03:46:09;2.22;;;1.13;;
64738;SDS011;51175;51.186;0.276;2023-02-26T03:46:50;4.70;;;1.45;;
64738;SDS011;51175;51.186;0.276;2023-02-26T03:47:24;6.57;;;2.55;;
64738;SDS011;51175;51.186;0.276;2023-02-26T03:47:57;4.07;;;1.38;;
64738;SDS011;51175;51.186;0.276;2023-02-26T03:48:30;4.00;;;1.52;;
64738;SDS011;51175;51.186;0.276;2023-02-26T03:49:19;5.53;;;1.67;;
64738;SDS011;51175;51.186;0.276;2023-02-26T03:50:36;4.65;;;1.55;;
64738;SDS011;51175;51.186;0.276;2023-02-26T03:51:10;5.60;;;1.95;;
64738;SDS011;51175;51.186;0.276;2023-02-26T03:51:43;4.18;;;1.63;;
64738;SDS011;51175;51.186;0.276;2023-02-26T03:52:15;3.88;;;1.23;;
64738;SDS011;51175;51.186;0.276;2023-02-26T03:52:46;3.67;;;1.92;;
64738;SDS011;51175;51.186;0.276;2023-02-26T03:53:23;7.32;;;1.90;;
64738;SDS011;51175;51.186;0.276;2023-02-26T03:53:59;7.30;;;2.65;;
64738;SDS011;51175;51.186;0.276;2023-02-26T03:54:36;3.90;;;1.30;;
64738;SDS011;51175;51.186;0.276;2023-02-26T03:55:18;3.10;;;1.30;;
64738;SDS011;51175;51.186;0.276;2023-02-26T03:55:58;6.03;;;1.48;;
64738;SDS011;51175;51.186;0.276;2023-02-26T03:56:36;4.50;;;2.28;;
64738;SDS011;51175;51.186;0.276;2023-02-26T03:57:12;6.60;;;1.48;;
64738;SDS011;51175;51.186;0.276;2023-02-26T03:57:42;4.80;;;1.77;;
64738;SDS011;51175;51.186;0.276;2023-02-26T03:58:14;6.78;;;1.92;;
64738;SDS011;51175;51.186;0.276;2023-02-26T03:58:44;4.20;;;1.42;;
64738;SDS011;51175;51.186;0.276;2023-02-26T03:59:15;5.15;;;1.40;;
64738;SDS011;51175;51.186;0.276;2023-02-26T03:59:46;3.95;;;1.77;;
64738;SDS011;51175;51.186;0.276;2023-02-26T04:00:17;4.22;;;1.13;;
64738;SDS011;51175;51.186;0.276;2023-02-26T04:00:50;5.35;;;1.45;;
64738;SDS011;51175;51.186;0.276;2023-02-26T04:01:29;5.85;;;1.60;;
64738;SDS011;51175;51.186;0.276;2023-02-26T04:02:08;7.50;;;2.05;;
64738;SDS011;51175;51.186;0.276;2023-02-26T04:04:38;5.05;;;1.42;;
64738;SDS011;51175;51.186;0.276;2023-02-26T04:05:13;4.40;;;1.98;;
64738;SDS011;51175;51.186;0.276;2023-02-26T04:05:47;6.43;;;1.50;;
64738;SDS011;51175;51.186;0.276;2023-02-26T04:06:20;9.90;;;2.38;;
64738;SDS011;51175;51.186;0.276;2023-02-26T04:06:50;5.43;;;1.85;;
64738;SDS011;51175;51.186;0.276;2023-02-26T04:07:23;4.28;;;1.20;;
64738;SDS011;51175;51.186;0.276;2023-02-26T04:07:54;5.40;;;1.67;;
64738;SDS011;51175;51.186;0.276;2023-02-26T04:08:27;7.47;;;2.85;;
64738;SDS011;51175;51.186;0.276;2023-02-26T04:08:58;6.15;;;2.05;;
64738;SDS011;51175;51.186;0.276;2023-02-26T04:09:30;4.88;;;1.65;;
64738;SDS011;51175;51.186;0.276;2023-02-26T04:10:00;6.78;;;1.85;;
64738;SDS011;51175;51.186;0.276;2023-02-26T04:10:39;3.85;;;1.45;;
64738;SDS011;51175;51.186;0.276;2023-02-26T04:11:17;3.10;;;1.27;;
64738;SDS011;51175;51.186;0.276;2023-02-26T04:11:49;3.85;;;1.33;;
64738;SDS011;51175;51.186;0.276;2023-02-26T04:12:23;3.67;;;0.98;;
64738;SDS011;51175;51.186;0.276;2023-02-26T04:12:57;5.47;;;1.48;;
64738;SDS011;51175;51.186;0.276;2023-02-26T04:13:29;5.05;;;1.60;;
64738;SDS011;51175;51.186;0.276;2023-02-26T04:13:59;7.93;;;1.52;;
64738;SDS011;51175;51.186;0.276;2023-02-26T04:14:30;4.22;;;2.30;;
64738;SDS011;51175;51.186;0.276;2023-02-26T04:15:00;2.80;;;1.25;;
64738;SDS011;51175;51.186;0.276;2023-02-26T04:15:31;6.40;;;1.60;;
64738;SDS011;51175;51.186;0.276;2023-02-26T04:16:01;4.55;;;1.77;;
64738;SDS011;51175;51.186;0.276;2023-02-26T04:16:32;6.88;;;1.80;;
64738;SDS011;51175;51.186;0.276;2023-02-26T04:17:03;7.63;;;2.55;;
64738;SDS011;51175;51.186;0.276;2023-02-26T04:17:33;4.15;;;1.13;;
64738;SDS011;51175;51.186;0.276;2023-02-26T04:18:04;3.90;;;2.05;;
64738;SDS011;51175;51.186;0.276;2023-02-26T04:18:34;4.95;;;1.17;;
64738;SDS011;51175;51.186;0.276;2023-02-26T04:19:05;5.25;;;1.45;;
64738;SDS011;51175;51.186;0.276;2023-02-26T04:19:35;7.13;;;2.20;;
64738;SDS011;51175;51.186;0.276;2023-02-26T04:20:06;8.65;;;1.98;;
64738;SDS011;51175;51.186;0.276;2023-02-26T04:20:38;8.27;;;1.90;;
64738;SDS011;51175;51.186;0.276;2023-02-26T04:21:12;7.78;;;1.58;;
64738;SDS011;51175;51.186;0.276;2023-02-26T04:21:45;4.80;;;1.50;;
64738;SDS011;51175;51.186;0.276;2023-02-26T04:22:15;4.32;;;2.25;;
64738;SDS011;51175;51.186;0.276;2023-02-26T04:22:46;5.70;;;1.48;;
64738;SDS011;51175;51.186;0.276;2023-02-26T04:23:16;2.90;;;1.20;;
64738;SDS011;51175;51.186;0.276;2023-02-26T04:23:48;5.43;;;1.70;;
64738;SDS011;51175;51.186;0.276;2023-02-26T04:24:18;5.28;;;1.48;;
64738;SDS011;51175;51.186;0.276;2023-02-26T04:24:49;6.40;;;2.53;;